Time;durP1;ratioP1;P1;durP2;ratioP2;P2;SDS_P1;SDS_P2;PMS_P1;PMS_P2;Temp;Humidity;BMP_temperature;BMP_pressure;BME280_temperature;BME280_humidity;BME280_pressure;Samples;Min_cycle;Max_cycle;Signal;HPM_P1;HPM_P2
2021/11/23 00:01:49;;;;;;;;;;;4.90;87.90;;;;;;5095686;28;19956;-78
2021/11/23 00:04:15;;;;;;;;;;;4.80;87.90;;;;;;5095660;28;19908;-78
2021/11/23 00:06:40;;;;;;;;;;;4.70;88.70;;;;;;5095568;28;20391;-78
2021/11/23 00:09:06;;;;;;;;;;;4.70;89.10;;;;;;5095406;28;20011;-78
2021/11/23 00:11:31;;;;;;;;;;;4.70;89.20;;;;;;5095518;28;19915;-78
2021/11/23 00:13:57;;;;;;;;;;;4.70;89.10;;;;;;5094084;28;19966;-78
2021/11/23 00:16:23;;;;;;;;;;;4.50;90.00;;;;;;5095445;28;19915;-78
2021/11/23 00:18:48;;;;;;;;;;;4.50;89.80;;;;;;5095360;28;19973;-78
2021/11/23 00:21:15;;;;;;;;;;;4.40;90.30;;;;;;5095372;28;19931;-78
2021/11/23 00:23:41;;;;;;;;;;;4.50;90.20;;;;;;5095220;28;20006;-78
2021/11/23 00:26:06;;;;;;;;;;;4.40;90.10;;;;;;5095362;28;19957;-78
2021/11/23 00:28:32;;;;;;;;;;;4.50;89.90;;;;;;5095467;28;19908;-78
2021/11/23 00:30:58;;;;;;;;;;;4.40;90.40;;;;;;5094741;28;20403;-78
2021/11/23 00:33:23;;;;;;;;;;;4.30;90.50;;;;;;5095001;28;19958;-78
2021/11/23 00:35:49;;;;;;;;;;;4.30;90.50;;;;;;5095497;28;19908;-78
2021/11/23 00:38:15;;;;;;;;;;;4.40;90.40;;;;;;5095001;28;19908;-78
2021/11/23 00:40:41;;;;;;;;;;;4.50;90.20;;;;;;5094885;28;19954;-78
2021/11/23 00:43:07;;;;;;;;;;;4.50;89.80;;;;;;5094924;28;19912;-78
2021/11/23 00:45:33;;;;;;;;;;;4.60;89.50;;;;;;5094881;28;19908;-78
2021/11/23 00:47:59;;;;;;;;;;;4.50;89.30;;;;;;5094962;28;19908;-78
2021/11/23 00:50:25;;;;;;;;;;;4.70;88.80;;;;;;5094744;28;19931;-78
2021/11/23 00:52:50;;;;;;;;;;;4.70;89.00;;;;;;5094718;28;19965;-77
2021/11/23 00:55:16;;;;;;;;;;;4.70;88.80;;;;;;5094758;28;19912;-78
2021/11/23 00:57:41;;;;;;;;;;;4.70;89.10;;;;;;5094589;28;19914;-78
2021/11/23 01:00:09;;;;;;;;;;;4.60;89.90;;;;;;5094580;28;19965;-78
2021/11/23 01:02:35;;;;;;;;;;;4.50;89.80;;;;;;5094496;28;19908;-77
2021/11/23 01:05:01;;;;;;;;;;;4.60;89.50;;;;;;5094479;28;20422;-77
2021/11/23 01:07:26;;;;;;;;;;;4.50;90.00;;;;;;5094514;28;19912;-78
2021/11/23 01:09:52;;;;;;;;;;;4.40;90.10;;;;;;5094129;28;19920;-78
2021/11/23 01:12:18;;;;;;;;;;;4.50;90.30;;;;;;5094342;28;20467;-78
2021/11/23 01:14:43;;;;;;;;;;;4.50;90.10;;;;;;5094355;28;19908;-78
2021/11/23 01:17:09;;;;;;;;;;;4.60;90.00;;;;;;5094286;28;19908;-78
2021/11/23 01:19:35;;;;;;;;;;;4.60;90.00;;;;;;5094226;28;20433;-78
2021/11/23 01:22:01;;;;;;;;;;;4.60;90.00;;;;;;5094241;28;19953;-78
2021/11/23 01:24:26;;;;;;;;;;;4.50;90.00;;;;;;5094200;28;19916;-78
2021/11/23 01:26:52;;;;;;;;;;;4.50;90.20;;;;;;5094148;28;20387;-78
2021/11/23 01:29:18;;;;;;;;;;;4.50;90.50;;;;;;5094107;28;19912;-78
2021/11/23 01:31:43;;;;;;;;;;;4.30;90.60;;;;;;5094030;28;19912;-78
2021/11/23 01:34:09;;;;;;;;;;;4.40;90.80;;;;;;5092667;28;19919;-78
2021/11/23 01:36:34;;;;;;;;;;;4.40;90.80;;;;;;5094242;28;19961;-78
2021/11/23 01:39:00;;;;;;;;;;;4.40;90.80;;;;;;5093853;28;19909;-78
2021/11/23 01:41:26;;;;;;;;;;;4.40;90.60;;;;;;5093997;28;20024;-78
2021/11/23 01:43:51;;;;;;;;;;;4.40;91.10;;;;;;5092970;28;19931;-78
2021/11/23 01:46:17;;;;;;;;;;;4.40;91.00;;;;;;5092549;28;19931;-78
2021/11/23 01:48:43;;;;;;;;;;;4.40;90.90;;;;;;5093877;28;19996;-78
2021/11/23 01:51:08;;;;;;;;;;;4.30;91.10;;;;;;5093831;28;19985;-78
2021/11/23 01:53:34;;;;;;;;;;;4.30;91.30;;;;;;5093771;28;19912;-78
2021/11/23 01:56:00;;;;;;;;;;;4.40;91.30;;;;;;5093878;28;19973;-78
2021/11/23 01:58:25;;;;;;;;;;;4.40;91.30;;;;;;5093737;28;19931;-78
2021/11/23 02:00:51;;;;;;;;;;;4.40;91.40;;;;;;5093845;28;19989;-77
2021/11/23 02:03:17;;;;;;;;;;;4.40;91.50;;;;;;5093137;28;20018;-78
2021/11/23 02:05:42;;;;;;;;;;;4.30;91.60;;;;;;5093731;28;19950;-78
2021/11/23 02:08:10;;;;;;;;;;;4.20;91.70;;;;;;5092341;28;20276;-78
2021/11/23 02:10:36;;;;;;;;;;;4.20;91.90;;;;;;5093278;28;19920;-78
2021/11/23 02:13:02;;;;;;;;;;;4.30;92.10;;;;;;5093658;28;19919;-78
2021/11/23 02:15:28;;;;;;;;;;;4.30;92.20;;;;;;5093692;28;20003;-78
2021/11/23 02:17:54;;;;;;;;;;;4.30;92.00;;;;;;5093554;28;19992;-78
2021/11/23 02:20:22;;;;;;;;;;;4.20;92.50;;;;;;5093697;28;19908;-78
2021/11/23 02:22:48;;;;;;;;;;;4.20;92.70;;;;;;5093537;28;19998;-78
2021/11/23 02:25:14;;;;;;;;;;;4.20;92.60;;;;;;5093467;28;19916;-78
2021/11/23 02:27:40;;;;;;;;;;;4.30;92.70;;;;;;5093480;28;19908;-78
2021/11/23 02:30:06;;;;;;;;;;;4.30;92.70;;;;;;5093436;28;19908;-78
2021/11/23 02:32:43;;;;;;;;;;;4.30;92.50;;;;;;5093323;28;19958;-78
2021/11/23 02:35:09;;;;;;;;;;;4.30;92.80;;;;;;5093445;28;20380;-78
2021/11/23 02:37:45;;;;;;;;;;;4.20;93.00;;;;;;5093364;28;20403;-78
2021/11/23 02:40:12;;;;;;;;;;;4.30;92.80;;;;;;5093438;28;19908;-78
2021/11/23 02:42:37;;;;;;;;;;;4.20;93.00;;;;;;5093439;28;19961;-78
2021/11/23 02:45:03;;;;;;;;;;;4.30;92.90;;;;;;5093302;28;20380;-78
2021/11/23 02:47:33;;;;;;;;;;;4.20;93.30;;;;;;5092006;28;19944;-77
2021/11/23 02:49:59;;;;;;;;;;;4.20;93.40;;;;;;5093596;28;20376;-78
2021/11/23 02:52:24;;;;;;;;;;;4.30;93.50;;;;;;5093436;28;19915;-78
2021/11/23 02:54:57;;;;;;;;;;;4.20;93.60;;;;;;5094607;28;20275;-78
2021/11/23 02:57:24;;;;;;;;;;;4.10;93.80;;;;;;5097494;28;19950;-78
2021/11/23 02:59:50;;;;;;;;;;;4.20;93.80;;;;;;5097081;28;19916;-78
2021/11/23 03:02:15;;;;;;;;;;;4.20;93.70;;;;;;5096854;28;20364;-78
2021/11/23 03:04:41;;;;;;;;;;;4.20;93.90;;;;;;5096882;28;20449;-78
2021/11/23 03:07:11;;;;;;;;;;;4.20;93.90;;;;;;5096756;28;19919;-78
2021/11/23 03:09:36;;;;;;;;;;;4.10;94.20;;;;;;5095455;28;19924;-78
2021/11/23 03:12:02;;;;;;;;;;;4.10;94.20;;;;;;5095374;28;19908;-78
2021/11/23 03:14:28;;;;;;;;;;;4.10;94.50;;;;;;5096612;28;19951;-78
2021/11/23 03:16:53;;;;;;;;;;;4.00;94.60;;;;;;5096636;28;19915;-78
2021/11/23 03:19:19;;;;;;;;;;;4.00;94.80;;;;;;5097020;28;19912;-78
2021/11/23 03:21:44;;;;;;;;;;;4.00;94.90;;;;;;5096520;28;19908;-78
2021/11/23 03:24:11;;;;;;;;;;;4.00;94.80;;;;;;5096487;28;19915;-78
2021/11/23 03:26:36;;;;;;;;;;;4.00;94.80;;;;;;5096426;28;19912;-78
2021/11/23 03:29:02;;;;;;;;;;;3.90;95.10;;;;;;5096389;28;19938;-77
2021/11/23 03:31:27;;;;;;;;;;;3.90;95.10;;;;;;5096317;28;19912;-77
2021/11/23 03:33:53;;;;;;;;;;;4.00;95.00;;;;;;5096247;28;19912;-78
2021/11/23 03:36:18;;;;;;;;;;;3.90;95.20;;;;;;5096236;28;19919;-78
2021/11/23 03:38:44;;;;;;;;;;;3.90;95.30;;;;;;5096556;28;19908;-78
2021/11/23 03:41:10;;;;;;;;;;;3.90;95.30;;;;;;5096157;28;19908;-78
2021/11/23 03:43:35;;;;;;;;;;;3.90;95.50;;;;;;5096070;28;19908;-78
2021/11/23 03:46:01;;;;;;;;;;;3.90;95.60;;;;;;5096099;28;19954;-77
2021/11/23 03:48:26;;;;;;;;;;;4.00;95.40;;;;;;5094612;28;19912;-78
2021/11/23 03:50:52;;;;;;;;;;;3.90;95.30;;;;;;5096385;28;19916;-78
2021/11/23 03:53:18;;;;;;;;;;;3.80;95.90;;;;;;5096129;28;19922;-78
2021/11/23 03:55:48;;;;;;;;;;;3.80;96.10;;;;;;5095911;28;20414;-78
2021/11/23 03:58:14;;;;;;;;;;;3.70;96.20;;;;;;5095862;28;20378;-78
2021/11/23 04:00:40;;;;;;;;;;;3.70;96.40;;;;;;5095747;28;19916;-78
2021/11/23 04:03:05;;;;;;;;;;;3.80;96.50;;;;;;5095766;28;19965;-78
2021/11/23 04:05:31;;;;;;;;;;;3.80;96.40;;;;;;5095250;28;19915;-78
2021/11/23 04:07:56;;;;;;;;;;;3.80;96.30;;;;;;5095039;28;19912;-78
2021/11/23 04:10:22;;;;;;;;;;;3.80;96.60;;;;;;5095183;28;19924;-78
2021/11/23 04:12:48;;;;;;;;;;;3.80;96.60;;;;;;5095649;28;20003;-78
2021/11/23 04:15:14;;;;;;;;;;;3.80;96.80;;;;;;5095431;28;19908;-78
2021/11/23 04:17:40;;;;;;;;;;;3.80;96.80;;;;;;5095835;28;20011;-78
2021/11/23 04:20:06;;;;;;;;;;;3.70;96.80;;;;;;5095314;28;20128;-78
2021/11/23 04:22:32;;;;;;;;;;;3.70;97.00;;;;;;5095615;28;19908;-79
2021/11/23 04:24:58;;;;;;;;;;;3.60;96.80;;;;;;5095220;28;19908;-78
2021/11/23 04:27:23;;;;;;;;;;;3.60;97.20;;;;;;5093926;28;19915;-77
2021/11/23 04:29:49;;;;;;;;;;;3.60;97.30;;;;;;5093919;28;20395;-78
2021/11/23 04:32:14;;;;;;;;;;;3.70;97.40;;;;;;5095170;28;20292;-78
2021/11/23 04:34:40;;;;;;;;;;;3.70;97.30;;;;;;5095054;28;19912;-78
2021/11/23 04:37:06;;;;;;;;;;;3.70;97.30;;;;;;5095061;28;19943;-78
2021/11/23 04:39:32;;;;;;;;;;;3.70;97.30;;;;;;5095119;28;20388;-78
2021/11/23 04:41:57;;;;;;;;;;;3.60;97.50;;;;;;5094950;28;19908;-78
2021/11/23 04:44:23;;;;;;;;;;;3.60;97.40;;;;;;5094948;28;19912;-78
2021/11/23 04:46:48;;;;;;;;;;;3.60;97.50;;;;;;5095080;28;20287;-78
2021/11/23 04:49:14;;;;;;;;;;;3.70;97.40;;;;;;5094818;28;19912;-78
2021/11/23 04:51:40;;;;;;;;;;;3.70;97.30;;;;;;5094770;28;19957;-78
2021/11/23 04:54:05;;;;;;;;;;;3.70;97.30;;;;;;5094858;28;19959;-78
2021/11/23 04:56:31;;;;;;;;;;;3.70;97.40;;;;;;5094797;28;20327;-78
2021/11/23 04:58:57;;;;;;;;;;;3.60;97.50;;;;;;5094631;28;19919;-78
2021/11/23 05:01:23;;;;;;;;;;;3.60;97.60;;;;;;5094624;28;20358;-78
2021/11/23 05:03:48;;;;;;;;;;;3.50;97.60;;;;;;5094565;28;20288;-78
2021/11/23 05:06:14;;;;;;;;;;;3.50;97.90;;;;;;5094468;28;19915;-78
2021/11/23 05:08:40;;;;;;;;;;;3.50;97.90;;;;;;5094305;28;19908;-78
2021/11/23 05:11:05;;;;;;;;;;;3.60;97.60;;;;;;5094516;28;20332;-78
2021/11/23 05:13:31;;;;;;;;;;;3.60;97.70;;;;;;5094500;28;19912;-78
2021/11/23 05:15:56;;;;;;;;;;;3.60;97.60;;;;;;5094545;28;20292;-78
2021/11/23 05:18:22;;;;;;;;;;;3.60;97.70;;;;;;5094359;28;19987;-78
2021/11/23 05:20:47;;;;;;;;;;;3.60;97.70;;;;;;5094297;28;19953;-78
2021/11/23 05:23:13;;;;;;;;;;;3.60;97.60;;;;;;5092923;28;20338;-78
2021/11/23 05:25:39;;;;;;;;;;;3.70;97.30;;;;;;5094415;28;19915;-78
2021/11/23 05:28:04;;;;;;;;;;;3.60;97.20;;;;;;5094465;28;19912;-78
2021/11/23 05:30:30;;;;;;;;;;;3.70;97.20;;;;;;5094097;28;20007;-78
2021/11/23 05:32:55;;;;;;;;;;;3.70;97.20;;;;;;5094028;28;20342;-78
2021/11/23 05:35:21;;;;;;;;;;;3.70;97.10;;;;;;5093999;28;19947;-78
2021/11/23 05:37:47;;;;;;;;;;;3.70;97.00;;;;;;5094025;28;20291;-78
2021/11/23 05:40:12;;;;;;;;;;;3.60;96.90;;;;;;5093908;28;20431;-78
2021/11/23 05:42:38;;;;;;;;;;;3.60;97.10;;;;;;5092707;28;20404;-77
2021/11/23 05:45:08;;;;;;;;;;;3.60;97.20;;;;;;5094089;28;19912;-78
2021/11/23 05:47:34;;;;;;;;;;;3.50;97.20;;;;;;5093913;28;19908;-78
2021/11/23 05:50:00;;;;;;;;;;;3.70;96.80;;;;;;5093869;28;19915;-78
2021/11/23 05:52:25;;;;;;;;;;;3.60;96.60;;;;;;5093822;28;19916;-78
2021/11/23 05:54:51;;;;;;;;;;;3.60;96.70;;;;;;5093800;28;19909;-78
2021/11/23 05:57:16;;;;;;;;;;;3.60;96.90;;;;;;5093739;28;19912;-78
2021/11/23 05:59:42;;;;;;;;;;;3.60;96.90;;;;;;5093891;28;19954;-78
2021/11/23 06:02:07;;;;;;;;;;;3.60;96.80;;;;;;5093709;28;19908;-78
2021/11/23 06:04:33;;;;;;;;;;;3.60;96.50;;;;;;5093698;28;20432;-78
2021/11/23 06:06:58;;;;;;;;;;;3.60;96.60;;;;;;5092427;28;19908;-78
2021/11/23 06:09:24;;;;;;;;;;;3.50;96.50;;;;;;5093610;28;19955;-78
2021/11/23 06:11:50;;;;;;;;;;;3.40;97.00;;;;;;5093368;28;19915;-78
2021/11/23 06:14:15;;;;;;;;;;;3.40;97.10;;;;;;5093564;28;19916;-77
2021/11/23 06:16:46;;;;;;;;;;;3.40;97.30;;;;;;5093619;28;19908;-78
2021/11/23 06:19:12;;;;;;;;;;;3.30;97.50;;;;;;5093715;28;19919;-78
2021/11/23 06:21:38;;;;;;;;;;;3.40;97.80;;;;;;5093527;28;19908;-78
2021/11/23 06:24:03;;;;;;;;;;;3.50;97.10;;;;;;5093697;28;19931;-78
2021/11/23 06:26:30;;;;;;;;;;;3.30;97.70;;;;;;5093441;28;19908;-78
2021/11/23 06:28:56;;;;;;;;;;;3.30;97.60;;;;;;5093510;28;19908;-78
2021/11/23 06:31:21;;;;;;;;;;;3.20;98.00;;;;;;5097562;28;19915;-78
2021/11/23 06:33:47;;;;;;;;;;;3.30;97.60;;;;;;5097587;28;19942;-77
2021/11/23 06:36:13;;;;;;;;;;;3.30;97.50;;;;;;5097443;28;19908;-78
2021/11/23 06:38:39;;;;;;;;;;;3.10;98.00;;;;;;5097313;28;19908;-78
2021/11/23 06:41:04;;;;;;;;;;;3.00;98.30;;;;;;5097287;28;19961;-78
2021/11/23 06:43:30;;;;;;;;;;;3.00;98.30;;;;;;5097598;28;19916;-78
2021/11/23 06:45:55;;;;;;;;;;;3.00;98.40;;;;;;5097210;28;19915;-78
2021/11/23 06:48:21;;;;;;;;;;;3.00;98.60;;;;;;5095855;28;19974;-78
2021/11/23 06:50:47;;;;;;;;;;;3.00;98.70;;;;;;5097108;28;19913;-78
2021/11/23 06:53:13;;;;;;;;;;;3.00;98.50;;;;;;5097029;28;19912;-78
2021/11/23 06:55:39;;;;;;;;;;;2.80;99.00;;;;;;5097337;28;20261;-78
2021/11/23 06:58:05;;;;;;;;;;;2.80;99.40;;;;;;5097018;28;20003;-78
2021/11/23 07:00:31;;;;;;;;;;;2.80;99.40;;;;;;5096992;28;19958;-78
2021/11/23 07:02:56;;;;;;;;;;;2.80;99.50;;;;;;5096807;28;19912;-78
2021/11/23 07:05:22;;;;;;;;;;;2.80;99.60;;;;;;5097039;28;19958;-78
2021/11/23 07:07:48;;;;;;;;;;;2.80;99.40;;;;;;5096790;28;19999;-78
2021/11/23 07:10:14;;;;;;;;;;;2.90;99.10;;;;;;5096394;28;20012;-78
2021/11/23 07:12:40;;;;;;;;;;;2.90;99.00;;;;;;5096632;28;20334;-78
2021/11/23 07:15:06;;;;;;;;;;;2.90;99.00;;;;;;5096638;28;19909;-78
2021/11/23 07:17:32;;;;;;;;;;;2.80;99.20;;;;;;5096939;28;19908;-78
2021/11/23 07:19:57;;;;;;;;;;;2.80;99.20;;;;;;5096831;28;19915;-78
2021/11/23 07:22:23;;;;;;;;;;;3.00;98.60;;;;;;5096590;28;20011;-78
2021/11/23 07:24:49;;;;;;;;;;;3.10;98.40;;;;;;5096500;28;19915;-78
2021/11/23 07:27:15;;;;;;;;;;;3.10;98.10;;;;;;5096438;28;19908;-78
2021/11/23 07:29:40;;;;;;;;;;;3.10;98.20;;;;;;5096382;28;19914;-78
2021/11/23 07:32:07;;;;;;;;;;;3.20;98.10;;;;;;5096461;28;20029;-78
2021/11/23 07:34:33;;;;;;;;;;;3.20;97.90;;;;;;5096290;28;20369;-78
2021/11/23 07:36:58;;;;;;;;;;;3.40;97.50;;;;;;5096291;28;20011;-78
2021/11/23 07:39:26;;;;;;;;;;;3.40;97.40;;;;;;5096293;28;19991;-78
2021/11/23 07:41:52;;;;;;;;;;;3.50;97.30;;;;;;5096239;28;19915;-78
2021/11/23 07:44:17;;;;;;;;;;;3.50;97.30;;;;;;5096040;28;19998;-78
2021/11/23 07:46:43;;;;;;;;;;;3.60;97.10;;;;;;5095947;28;20368;-78
2021/11/23 07:49:09;;;;;;;;;;;3.60;97.10;;;;;;5096195;28;19947;-78
2021/11/23 07:51:35;;;;;;;;;;;3.70;96.80;;;;;;5095784;28;19908;-78
2021/11/23 07:54:01;;;;;;;;;;;3.80;96.40;;;;;;5095639;28;19912;-77
2021/11/23 07:56:27;;;;;;;;;;;3.80;96.40;;;;;;5095635;28;19961;-78
2021/11/23 07:58:52;;;;;;;;;;;3.80;96.20;;;;;;5095627;28;20010;-78
2021/11/23 08:01:18;;;;;;;;;;;3.90;96.10;;;;;;5095655;28;19908;-78
2021/11/23 08:03:43;;;;;;;;;;;4.00;95.80;;;;;;5096102;28;20368;-78
2021/11/23 08:06:10;;;;;;;;;;;4.20;95.10;;;;;;5095651;28;19915;-78
2021/11/23 08:08:36;;;;;;;;;;;4.20;94.80;;;;;;5095419;28;19909;-78
2021/11/23 08:11:01;;;;;;;;;;;4.30;94.90;;;;;;5095604;28;19923;-78
2021/11/23 08:13:27;;;;;;;;;;;4.50;94.50;;;;;;5094156;28;19912;-78
2021/11/23 08:15:53;;;;;;;;;;;4.90;94.30;;;;;;5095392;28;19909;-78
2021/11/23 08:18:19;;;;;;;;;;;5.70;93.50;;;;;;5091927;28;19919;-78
2021/11/23 08:20:45;;;;;;;;;;;6.90;90.10;;;;;;5095265;28;19912;-79
2021/11/23 08:23:10;;;;;;;;;;;7.80;84.80;;;;;;5095354;28;19908;-78
2021/11/23 08:25:38;;;;;;;;;;;8.20;81.50;;;;;;5095278;28;20380;-79
2021/11/23 08:28:04;;;;;;;;;;;8.90;79.10;;;;;;5095302;28;19915;-79
2021/11/23 08:30:30;;;;;;;;;;;9.40;75.40;;;;;;5095227;28;19908;-78
2021/11/23 08:32:56;;;;;;;;;;;9.70;73.50;;;;;;5094938;28;19959;-79
2021/11/23 08:35:21;;;;;;;;;;;10.60;71.90;;;;;;5095812;28;19919;-79
2021/11/23 08:37:47;;;;;;;;;;;11.20;68.40;;;;;;5095305;28;19915;-79
2021/11/23 08:40:13;;;;;;;;;;;11.90;66.10;;;;;;5093702;28;19915;-79
2021/11/23 08:42:39;;;;;;;;;;;12.20;64.60;;;;;;5094975;28;20376;-79
2021/11/23 08:45:13;;;;;;;;;;;12.90;62.20;;;;;;5094925;28;20279;-81
2021/11/23 08:47:39;;;;;;;;;;;13.10;61.80;;;;;;5095305;28;19908;-81
2021/11/23 08:50:06;;;;;;;;;;;13.10;60.70;;;;;;5095423;28;19916;-82
2021/11/23 08:52:32;;;;;;;;;;;13.30;60.80;;;;;;5092961;28;20003;-82
2021/11/23 08:54:57;;;;;;;;;;;13.00;60.00;;;;;;5095299;28;19962;-81
2021/11/23 08:57:23;;;;;;;;;;;13.50;59.10;;;;;;5093386;28;19934;-79
2021/11/23 08:59:50;;;;;;;;;;;14.00;57.70;;;;;;5093403;28;19916;-79
2021/11/23 09:02:17;;;;;;;;;;;14.20;57.70;;;;;;5095224;28;19961;-79
2021/11/23 09:04:43;;;;;;;;;;;14.50;57.00;;;;;;5094596;28;19908;-80
2021/11/23 09:07:11;;;;;;;;;;;14.60;55.60;;;;;;5094537;28;19947;-79
2021/11/23 09:09:39;;;;;;;;;;;15.20;55.60;;;;;;5094165;28;19973;-80
2021/11/23 09:12:05;;;;;;;;;;;15.60;54.10;;;;;;5094680;28;19930;-80
2021/11/23 09:14:32;;;;;;;;;;;15.70;53.20;;;;;;5094239;28;20400;-80
2021/11/23 09:16:58;;;;;;;;;;;15.50;54.00;;;;;;5093052;28;20364;-80
2021/11/23 09:19:27;;;;;;;;;;;16.20;52.40;;;;;;5094613;28;19908;-80
2021/11/23 09:21:53;;;;;;;;;;;16.10;52.60;;;;;;5094520;28;19908;-80
2021/11/23 09:24:19;;;;;;;;;;;16.50;52.40;;;;;;5092917;28;19912;-80
2021/11/23 09:26:45;;;;;;;;;;;17.10;50.30;;;;;;5094067;28;19915;-80
2021/11/23 09:29:10;;;;;;;;;;;17.60;49.30;;;;;;5094281;28;20440;-80
2021/11/23 09:31:36;;;;;;;;;;;17.80;49.00;;;;;;5092729;28;19908;-80
2021/11/23 09:34:02;;;;;;;;;;;17.80;49.40;;;;;;5094018;28;20365;-80
2021/11/23 09:36:27;;;;;;;;;;;17.80;48.30;;;;;;5093973;28;19967;-80
2021/11/23 09:38:53;;;;;;;;;;;17.70;48.00;;;;;;5094273;28;19952;-80
2021/11/23 09:41:19;;;;;;;;;;;18.30;47.90;;;;;;5093985;28;19912;-80
2021/11/23 09:43:44;;;;;;;;;;;18.90;46.10;;;;;;5094223;28;19908;-80
2021/11/23 09:46:10;;;;;;;;;;;18.60;46.00;;;;;;5094086;28;19998;-81
2021/11/23 09:48:40;;;;;;;;;;;19.00;48.10;;;;;;5094097;28;19907;-80
2021/11/23 09:51:10;;;;;;;;;;;19.20;46.00;;;;;;5094295;28;19923;-80
2021/11/23 09:53:36;;;;;;;;;;;19.90;44.60;;;;;;5092480;28;19912;-80
2021/11/23 09:56:01;;;;;;;;;;;21.10;44.10;;;;;;5093806;28;20037;-80
2021/11/23 09:58:27;;;;;;;;;;;20.90;43.50;;;;;;5094089;28;20312;-80
2021/11/23 10:01:00;;;;;;;;;;;21.30;42.80;;;;;;5093756;28;20373;-80
2021/11/23 10:03:27;;;;;;;;;;;21.60;41.90;;;;;;5093869;28;19908;-80
2021/11/23 10:06:03;;;;;;;;;;;20.80;42.80;;;;;;5096924;28;19915;-80
2021/11/23 10:08:30;;;;;;;;;;;21.30;41.80;;;;;;5097657;28;19908;-80
2021/11/23 10:10:56;;;;;;;;;;;21.40;42.30;;;;;;5097993;28;20273;-80
2021/11/23 10:13:22;;;;;;;;;;;21.40;42.40;;;;;;5097758;28;19957;-80
2021/11/23 10:15:49;;;;;;;;;;;21.70;41.20;;;;;;5097666;28;20343;-80
2021/11/23 10:18:16;;;;;;;;;;;21.60;42.70;;;;;;5098142;28;19947;-80
2021/11/23 10:20:44;;;;;;;;;;;22.20;41.50;;;;;;5097934;28;19912;-80
2021/11/23 10:23:09;;;;;;;;;;;22.60;40.40;;;;;;5096278;28;19908;-79
2021/11/23 10:25:35;;;;;;;;;;;22.60;40.60;;;;;;5096340;28;19914;-80
2021/11/23 10:28:01;;;;;;;;;;;22.10;40.60;;;;;;5097629;28;19908;-80
2021/11/23 10:30:26;;;;;;;;;;;22.30;40.60;;;;;;5097586;28;19999;-80
2021/11/23 10:32:55;;;;;;;;;;;22.90;39.90;;;;;;5097440;28;19914;-80
2021/11/23 10:35:22;;;;;;;;;;;23.60;38.80;;;;;;5097562;28;19908;-79
2021/11/23 10:37:48;;;;;;;;;;;23.20;39.30;;;;;;5096113;28;19912;-80
2021/11/23 10:40:16;;;;;;;;;;;22.30;39.90;;;;;;5097309;28;19915;-80
2021/11/23 10:42:43;;;;;;;;;;;23.10;38.90;;;;;;5097359;28;19962;-80
2021/11/23 10:45:10;;;;;;;;;;;23.00;38.90;;;;;;5097470;28;19943;-80
2021/11/23 10:47:36;;;;;;;;;;;23.20;39.30;;;;;;5097251;28;19912;-79
2021/11/23 10:50:05;;;;;;;;;;;23.70;39.20;;;;;;5097160;28;19934;-79
2021/11/23 10:52:34;;;;;;;;;;;23.60;39.30;;;;;;5097261;28;19996;-80
2021/11/23 10:54:59;;;;;;;;;;;23.70;38.90;;;;;;5097031;28;20391;-80
2021/11/23 10:57:25;;;;;;;;;;;24.30;39.00;;;;;;5097042;28;19908;-79
2021/11/23 10:59:51;;;;;;;;;;;25.00;37.80;;;;;;5097037;28;20002;-79
2021/11/23 11:02:16;;;;;;;;;;;24.90;37.70;;;;;;5097171;28;19934;-79
2021/11/23 11:04:43;;;;;;;;;;;24.70;37.90;;;;;;5096950;28;19908;-79
2021/11/23 11:07:10;;;;;;;;;;;25.20;38.10;;;;;;5095892;28;19915;-79
2021/11/23 11:09:37;;;;;;;;;;;25.20;37.30;;;;;;5096528;28;19928;-79
2021/11/23 11:12:03;;;;;;;;;;;25.80;37.10;;;;;;5096742;28;19985;-79
2021/11/23 11:14:35;;;;;;;;;;;24.90;37.10;;;;;;5096610;28;19919;-79
2021/11/23 11:17:04;;;;;;;;;;;24.40;37.90;;;;;;5094729;28;19951;-79
2021/11/23 11:19:50;;;;;;;;;;;24.70;38.00;;;;;;5096715;28;19912;-79
2021/11/23 11:22:21;;;;;;;;;;;24.90;37.70;;;;;;5096246;28;20418;-79
2021/11/23 11:24:56;;;;;;;;;;;25.00;37.10;;;;;;5096600;28;19912;-80
2021/11/23 11:27:35;;;;;;;;;;;24.90;37.60;;;;;;5096539;28;19912;-79
2021/11/23 11:30:19;;;;;;;;;;;25.20;37.50;;;;;;5096587;28;19908;-80
2021/11/23 11:32:49;;;;;;;;;;;25.60;37.80;;;;;;5096337;28;20283;-79
2021/11/23 11:35:26;;;;;;;;;;;26.50;36.20;;;;;;5096321;28;19908;-79
2021/11/23 11:37:56;;;;;;;;;;;26.10;36.50;;;;;;5096660;28;19908;-79
2021/11/23 11:40:26;;;;;;;;;;;26.20;36.70;;;;;;5096105;28;19908;-79
2021/11/23 11:42:53;;;;;;;;;;;26.20;36.60;;;;;;5096141;28;19991;-79
2021/11/23 11:45:21;;;;;;;;;;;27.10;36.30;;;;;;5096105;28;19934;-79
2021/11/23 11:47:48;;;;;;;;;;;27.40;36.00;;;;;;5094795;28;19915;-80
2021/11/23 11:50:22;;;;;;;;;;;28.00;35.70;;;;;;5096256;28;19908;-81
2021/11/23 11:53:07;;;;;;;;;;;28.50;35.50;;;;;;5097010;28;19912;-79
2021/11/23 11:55:34;;;;;;;;;;;28.40;35.10;;;;;;5090417;28;20006;-79
2021/11/23 11:58:01;;;;;;;;;;;28.70;34.50;;;;;;5087346;28;20381;-79
2021/11/23 12:00:35;;;;;;;;;;;28.90;34.60;;;;;;5093838;28;19908;-80
2021/11/23 12:03:21;;;;;;;;;;;28.30;34.60;;;;;;5095067;28;19908;-79
2021/11/23 12:05:47;;;;;;;;;;;28.50;34.50;;;;;;5081433;28;20019;-80
2021/11/23 12:08:23;;;;;;;;;;;29.50;34.40;;;;;;5095048;28;20413;-80
2021/11/23 12:10:49;;;;;;;;;;;28.80;34.40;;;;;;5091871;28;20013;-80
2021/11/23 12:13:35;;;;;;;;;;;29.20;34.50;;;;;;5094841;28;19919;-80
2021/11/23 12:16:03;;;;;;;;;;;29.10;34.00;;;;;;5092029;28;20346;-79
2021/11/23 12:18:28;;;;;;;;;;;28.20;33.80;;;;;;5094632;28;20009;-80
2021/11/23 12:21:08;;;;;;;;;;;27.90;34.40;;;;;;5094838;28;19912;-79
2021/11/23 12:23:39;;;;;;;;;;;29.30;33.40;;;;;;5091044;28;19970;-79
2021/11/23 12:26:09;;;;;;;;;;;29.00;32.50;;;;;;5094613;28;19947;-77
2021/11/23 12:28:35;;;;;;;;;;;29.30;32.70;;;;;;5091477;28;19912;-77
2021/11/23 12:31:09;;;;;;;;;;;28.70;32.90;;;;;;5095130;28;20027;-77
2021/11/23 12:33:45;;;;;;;;;;;27.80;33.70;;;;;;5095181;28;19908;-77
2021/11/23 12:36:11;;;;;;;;;;;27.50;33.40;;;;;;5095128;28;19908;-77
2021/11/23 12:38:37;;;;;;;;;;;27.20;34.20;;;;;;5095123;28;19912;-78
2021/11/23 12:41:10;;;;;;;;;;;27.10;33.30;;;;;;5095010;28;19908;-77
2021/11/23 12:43:36;;;;;;;;;;;26.40;34.80;;;;;;5094905;28;20376;-78
2021/11/23 12:46:08;;;;;;;;;;;27.30;34.40;;;;;;5095176;28;19931;-77
2021/11/23 12:48:34;;;;;;;;;;;28.00;33.10;;;;;;5094781;28;19915;-77
2021/11/23 12:51:13;;;;;;;;;;;27.50;33.30;;;;;;5094604;28;19908;-77
2021/11/23 12:53:53;;;;;;;;;;;27.00;34.50;;;;;;5094739;28;19908;-77
2021/11/23 12:56:19;;;;;;;;;;;27.00;34.50;;;;;;5094792;28;20066;-77
2021/11/23 12:58:45;;;;;;;;;;;26.80;34.20;;;;;;5094715;28;20384;-77
2021/11/23 13:01:27;;;;;;;;;;;25.20;35.00;;;;;;5094665;28;20285;-77
2021/11/23 13:03:56;;;;;;;;;;;25.30;35.80;;;;;;5094520;28;20057;-77
2021/11/23 13:06:22;;;;;;;;;;;26.30;35.00;;;;;;5094589;28;19908;-77
2021/11/23 13:09:02;;;;;;;;;;;26.60;34.70;;;;;;5094196;28;19947;-77
2021/11/23 13:11:28;;;;;;;;;;;26.50;34.70;;;;;;5094854;28;19961;-77
2021/11/23 13:14:03;;;;;;;;;;;25.80;35.90;;;;;;5094420;28;19908;-77
2021/11/23 13:16:28;;;;;;;;;;;25.00;36.70;;;;;;5094486;28;19908;-77
2021/11/23 13:19:00;;;;;;;;;;;25.80;35.80;;;;;;5093626;28;21409;-77
2021/11/23 13:21:25;;;;;;;;;;;25.60;35.50;;;;;;5094363;28;19922;-77
2021/11/23 13:23:51;;;;;;;;;;;24.50;35.80;;;;;;5094385;28;19916;-77
2021/11/23 13:26:24;;;;;;;;;;;24.40;37.50;;;;;;5094214;28;19998;-78
2021/11/23 13:28:52;;;;;;;;;;;24.60;36.60;;;;;;5094124;28;19908;-76
2021/11/23 13:31:20;;;;;;;;;;;24.20;37.80;;;;;;5094111;28;19908;-77
2021/11/23 13:33:47;;;;;;;;;;;25.20;37.00;;;;;;5094267;28;19908;-77
2021/11/23 13:36:14;;;;;;;;;;;24.70;36.60;;;;;;5094133;28;19908;-77
2021/11/23 13:38:40;;;;;;;;;;;24.20;37.40;;;;;;5093871;28;20322;-76
2021/11/23 13:41:08;;;;;;;;;;;23.80;37.10;;;;;;5094055;28;19914;-76
2021/11/23 13:43:49;;;;;;;;;;;23.50;38.20;;;;;;5093875;28;19919;-77
2021/11/23 13:46:15;;;;;;;;;;;23.70;38.70;;;;;;5093927;28;19954;-77
2021/11/23 13:48:41;;;;;;;;;;;24.40;37.80;;;;;;5094010;28;19908;-77
2021/11/23 13:51:09;;;;;;;;;;;24.50;37.50;;;;;;5093880;28;19922;-77
2021/11/23 13:53:53;;;;;;;;;;;24.20;37.50;;;;;;5093666;28;20407;-76
2021/11/23 13:56:20;;;;;;;;;;;23.90;38.20;;;;;;5093999;28;19916;-78
2021/11/23 13:58:52;;;;;;;;;;;24.30;37.80;;;;;;5093642;28;20261;-78
2021/11/23 14:01:18;;;;;;;;;;;24.00;37.20;;;;;;5093676;28;19908;-77
2021/11/23 14:03:44;;;;;;;;;;;23.90;37.90;;;;;;5093991;28;19961;-77
2021/11/23 14:06:11;;;;;;;;;;;23.20;38.40;;;;;;5093993;28;19995;-76
2021/11/23 14:08:37;;;;;;;;;;;22.90;38.90;;;;;;5093418;28;20003;-78
2021/11/23 14:11:05;;;;;;;;;;;23.00;38.70;;;;;;5093811;28;19916;-77
2021/11/23 14:13:38;;;;;;;;;;;24.00;38.30;;;;;;5092246;28;20380;-77
2021/11/23 14:16:08;;;;;;;;;;;23.70;37.90;;;;;;5093737;28;19915;-76
2021/11/23 14:18:34;;;;;;;;;;;22.90;38.80;;;;;;5093758;28;19944;-77
2021/11/23 14:21:01;;;;;;;;;;;22.80;39.30;;;;;;5093513;28;19942;-76
2021/11/23 14:23:32;;;;;;;;;;;22.60;39.60;;;;;;5093408;28;19919;-77